sensor_id;sensor_type;location;lat;lon;timestamp;P1;durP1;ratioP1;P2;durP2;ratioP2
2872;SDS011;1444;49.166;7.312;2024-01-30T00:00:08;14.47;;;9.40;;
2872;SDS011;1444;49.166;7.312;2024-01-30T00:02:35;44.03;;;11.53;;
2872;SDS011;1444;49.166;7.312;2024-01-30T00:05:02;16.30;;;12.13;;
2872;SDS011;1444;49.166;7.312;2024-01-30T00:07:29;21.00;;;11.70;;
2872;SDS011;1444;49.166;7.312;2024-01-30T00:09:56;24.17;;;12.80;;
2872;SDS011;1444;49.166;7.312;2024-01-30T00:12:24;17.10;;;11.67;;
2872;SDS011;1444;49.166;7.312;2024-01-30T00:14:51;21.63;;;13.27;;
2872;SDS011;1444;49.166;7.312;2024-01-30T00:17:19;31.83;;;12.20;;
2872;SDS011;1444;49.166;7.312;2024-01-30T00:19:46;24.97;;;12.73;;
2872;SDS011;1444;49.166;7.312;2024-01-30T00:22:13;17.97;;;10.47;;
2872;SDS011;1444;49.166;7.312;2024-01-30T00:24:40;17.30;;;12.60;;
2872;SDS011;1444;49.166;7.312;2024-01-30T00:27:07;17.00;;;11.37;;
2872;SDS011;1444;49.166;7.312;2024-01-30T00:29:36;54.67;;;13.90;;
2872;SDS011;1444;49.166;7.312;2024-01-30T00:32:03;18.87;;;12.17;;
2872;SDS011;1444;49.166;7.312;2024-01-30T00:34:30;25.40;;;12.43;;
2872;SDS011;1444;49.166;7.312;2024-01-30T00:36:57;34.17;;;12.90;;
2872;SDS011;1444;49.166;7.312;2024-01-30T00:39:24;23.50;;;13.37;;
2872;SDS011;1444;49.166;7.312;2024-01-30T00:41:51;15.30;;;10.90;;
2872;SDS011;1444;49.166;7.312;2024-01-30T00:44:17;27.83;;;11.40;;
2872;SDS011;1444;49.166;7.312;2024-01-30T00:46:46;20.07;;;12.80;;
2872;SDS011;1444;49.166;7.312;2024-01-30T00:49:13;20.80;;;13.80;;
2872;SDS011;1444;49.166;7.312;2024-01-30T00:51:39;30.33;;;14.03;;
2872;SDS011;1444;49.166;7.312;2024-01-30T00:54:06;23.27;;;13.30;;
2872;SDS011;1444;49.166;7.312;2024-01-30T00:56:33;19.93;;;12.10;;
2872;SDS011;1444;49.166;7.312;2024-01-30T00:59:00;27.03;;;14.60;;
2872;SDS011;1444;49.166;7.312;2024-01-30T01:01:27;19.57;;;13.07;;
2872;SDS011;1444;49.166;7.312;2024-01-30T01:03:55;18.27;;;12.07;;
2872;SDS011;1444;49.166;7.312;2024-01-30T01:06:23;17.33;;;12.70;;
2872;SDS011;1444;49.166;7.312;2024-01-30T01:08:50;24.83;;;13.70;;
2872;SDS011;1444;49.166;7.312;2024-01-30T01:11:17;29.50;;;13.27;;
2872;SDS011;1444;49.166;7.312;2024-01-30T01:13:44;18.57;;;12.37;;
2872;SDS011;1444;49.166;7.312;2024-01-30T01:16:10;19.93;;;12.83;;
2872;SDS011;1444;49.166;7.312;2024-01-30T01:18:37;21.40;;;13.60;;
2872;SDS011;1444;49.166;7.312;2024-01-30T01:21:10;21.20;;;13.13;;
2872;SDS011;1444;49.166;7.312;2024-01-30T01:23:37;18.47;;;13.57;;
2872;SDS011;1444;49.166;7.312;2024-01-30T01:26:04;42.67;;;12.87;;
2872;SDS011;1444;49.166;7.312;2024-01-30T01:28:30;24.17;;;14.07;;
2872;SDS011;1444;49.166;7.312;2024-01-30T01:30:57;16.00;;;11.77;;
2872;SDS011;1444;49.166;7.312;2024-01-30T01:33:30;16.50;;;11.53;;
2872;SDS011;1444;49.166;7.312;2024-01-30T01:35:58;16.50;;;10.87;;
2872;SDS011;1444;49.166;7.312;2024-01-30T01:38:26;39.33;;;12.70;;
2872;SDS011;1444;49.166;7.312;2024-01-30T01:40:53;16.90;;;12.13;;
2872;SDS011;1444;49.166;7.312;2024-01-30T01:43:20;26.27;;;14.67;;
2872;SDS011;1444;49.166;7.312;2024-01-30T01:45:47;33.30;;;12.57;;
2872;SDS011;1444;49.166;7.312;2024-01-30T01:48:14;20.13;;;11.80;;
2872;SDS011;1444;49.166;7.312;2024-01-30T01:50:41;19.20;;;12.30;;
2872;SDS011;1444;49.166;7.312;2024-01-30T01:53:09;29.47;;;12.70;;
2872;SDS011;1444;49.166;7.312;2024-01-30T01:55:38;17.57;;;11.40;;
2872;SDS011;1444;49.166;7.312;2024-01-30T01:58:04;18.47;;;13.67;;
2872;SDS011;1444;49.166;7.312;2024-01-30T02:00:33;23.40;;;13.93;;
2872;SDS011;1444;49.166;7.312;2024-01-30T02:03:04;18.70;;;13.00;;
2872;SDS011;1444;49.166;7.312;2024-01-30T02:05:32;24.93;;;14.10;;
2872;SDS011;1444;49.166;7.312;2024-01-30T02:08:00;20.23;;;13.20;;
2872;SDS011;1444;49.166;7.312;2024-01-30T02:10:27;25.00;;;14.00;;
2872;SDS011;1444;49.166;7.312;2024-01-30T02:12:56;59.33;;;15.00;;
2872;SDS011;1444;49.166;7.312;2024-01-30T02:15:22;21.83;;;12.63;;
2872;SDS011;1444;49.166;7.312;2024-01-30T02:17:49;19.47;;;11.80;;
2872;SDS011;1444;49.166;7.312;2024-01-30T02:20:16;17.00;;;11.90;;
2872;SDS011;1444;49.166;7.312;2024-01-30T02:22:45;17.90;;;13.00;;
2872;SDS011;1444;49.166;7.312;2024-01-30T02:25:13;21.00;;;12.70;;
2872;SDS011;1444;49.166;7.312;2024-01-30T02:27:40;32.43;;;13.97;;
2872;SDS011;1444;49.166;7.312;2024-01-30T02:30:06;18.77;;;13.33;;
2872;SDS011;1444;49.166;7.312;2024-01-30T02:32:33;18.40;;;13.03;;
2872;SDS011;1444;49.166;7.312;2024-01-30T02:35:00;23.67;;;13.70;;
2872;SDS011;1444;49.166;7.312;2024-01-30T02:37:34;20.37;;;13.20;;
2872;SDS011;1444;49.166;7.312;2024-01-30T02:40:02;23.63;;;13.63;;
2872;SDS011;1444;49.166;7.312;2024-01-30T02:42:30;23.13;;;14.60;;
2872;SDS011;1444;49.166;7.312;2024-01-30T02:44:57;27.27;;;12.53;;
2872;SDS011;1444;49.166;7.312;2024-01-30T02:47:23;46.57;;;13.47;;
2872;SDS011;1444;49.166;7.312;2024-01-30T02:49:51;22.03;;;13.90;;
2872;SDS011;1444;49.166;7.312;2024-01-30T02:52:18;20.33;;;13.07;;
2872;SDS011;1444;49.166;7.312;2024-01-30T02:54:45;26.97;;;12.60;;
2872;SDS011;1444;49.166;7.312;2024-01-30T02:57:13;23.10;;;12.20;;
2872;SDS011;1444;49.166;7.312;2024-01-30T02:59:40;19.57;;;11.00;;
2872;SDS011;1444;49.166;7.312;2024-01-30T03:02:07;13.27;;;11.73;;
2872;SDS011;1444;49.166;7.312;2024-01-30T03:04:34;17.93;;;12.10;;
2872;SDS011;1444;49.166;7.312;2024-01-30T03:07:01;18.03;;;12.17;;
2872;SDS011;1444;49.166;7.312;2024-01-30T03:09:28;20.03;;;11.73;;
2872;SDS011;1444;49.166;7.312;2024-01-30T03:11:55;17.60;;;12.10;;
2872;SDS011;1444;49.166;7.312;2024-01-30T03:14:23;16.90;;;12.13;;
2872;SDS011;1444;49.166;7.312;2024-01-30T03:16:50;17.43;;;12.07;;
2872;SDS011;1444;49.166;7.312;2024-01-30T03:19:17;21.27;;;12.57;;
2872;SDS011;1444;49.166;7.312;2024-01-30T03:21:44;75.93;;;16.37;;
2872;SDS011;1444;49.166;7.312;2024-01-30T03:24:11;21.00;;;12.50;;
2872;SDS011;1444;49.166;7.312;2024-01-30T03:26:38;20.90;;;13.37;;
2872;SDS011;1444;49.166;7.312;2024-01-30T03:29:04;15.53;;;13.00;;
2872;SDS011;1444;49.166;7.312;2024-01-30T03:31:33;22.20;;;13.10;;
2872;SDS011;1444;49.166;7.312;2024-01-30T03:34:00;21.47;;;12.30;;
2872;SDS011;1444;49.166;7.312;2024-01-30T03:36:27;33.43;;;14.20;;
2872;SDS011;1444;49.166;7.312;2024-01-30T03:38:54;18.60;;;14.37;;
2872;SDS011;1444;49.166;7.312;2024-01-30T03:41:21;25.77;;;12.70;;
2872;SDS011;1444;49.166;7.312;2024-01-30T03:43:47;20.10;;;13.03;;
2872;SDS011;1444;49.166;7.312;2024-01-30T03:46:14;20.50;;;13.50;;
2872;SDS011;1444;49.166;7.312;2024-01-30T03:48:43;23.20;;;13.30;;
2872;SDS011;1444;49.166;7.312;2024-01-30T03:51:10;26.43;;;12.30;;
2872;SDS011;1444;49.166;7.312;2024-01-30T03:53:39;22.73;;;12.73;;
2872;SDS011;1444;49.166;7.312;2024-01-30T03:56:06;60.60;;;14.60;;
2872;SDS011;1444;49.166;7.312;2024-01-30T03:58:33;20.60;;;12.13;;
2872;SDS011;1444;49.166;7.312;2024-01-30T04:01:01;26.43;;;12.87;;
2872;SDS011;1444;49.166;7.312;2024-01-30T04:03:27;28.57;;;11.73;;
2872;SDS011;1444;49.166;7.312;2024-01-30T04:05:56;23.90;;;13.60;;
2872;SDS011;1444;49.166;7.312;2024-01-30T04:08:23;18.60;;;12.13;;
2872;SDS011;1444;49.166;7.312;2024-01-30T04:10:49;28.67;;;13.80;;
2872;SDS011;1444;49.166;7.312;2024-01-30T04:13:16;18.00;;;11.60;;
2872;SDS011;1444;49.166;7.312;2024-01-30T04:15:44;24.53;;;14.17;;
2872;SDS011;1444;49.166;7.312;2024-01-30T04:18:11;32.83;;;14.63;;
2872;SDS011;1444;49.166;7.312;2024-01-30T04:20:38;41.53;;;21.57;;
2872;SDS011;1444;49.166;7.312;2024-01-30T04:23:06;43.87;;;17.50;;
2872;SDS011;1444;49.166;7.312;2024-01-30T04:25:33;27.17;;;15.10;;
2872;SDS011;1444;49.166;7.312;2024-01-30T04:28:00;28.63;;;16.93;;
2872;SDS011;1444;49.166;7.312;2024-01-30T04:30:27;42.97;;;16.00;;
2872;SDS011;1444;49.166;7.312;2024-01-30T04:32:54;28.40;;;14.03;;
2872;SDS011;1444;49.166;7.312;2024-01-30T04:35:21;21.93;;;12.47;;
2872;SDS011;1444;49.166;7.312;2024-01-30T04:37:49;32.73;;;14.40;;
2872;SDS011;1444;49.166;7.312;2024-01-30T04:40:19;21.87;;;13.87;;
2872;SDS011;1444;49.166;7.312;2024-01-30T04:42:46;21.03;;;14.03;;
2872;SDS011;1444;49.166;7.312;2024-01-30T04:45:13;33.87;;;14.63;;
2872;SDS011;1444;49.166;7.312;2024-01-30T04:47:40;22.83;;;14.33;;
2872;SDS011;1444;49.166;7.312;2024-01-30T04:50:07;20.67;;;12.23;;
2872;SDS011;1444;49.166;7.312;2024-01-30T04:52:35;28.83;;;12.90;;
2872;SDS011;1444;49.166;7.312;2024-01-30T04:55:01;16.80;;;11.20;;
2872;SDS011;1444;49.166;7.312;2024-01-30T04:57:30;15.37;;;9.17;;
2872;SDS011;1444;49.166;7.312;2024-01-30T04:59:58;18.50;;;12.27;;
2872;SDS011;1444;49.166;7.312;2024-01-30T05:02:25;19.27;;;12.23;;
2872;SDS011;1444;49.166;7.312;2024-01-30T05:04:53;32.37;;;11.67;;
2872;SDS011;1444;49.166;7.312;2024-01-30T05:07:20;19.17;;;12.80;;
2872;SDS011;1444;49.166;7.312;2024-01-30T05:09:47;25.73;;;12.30;;
2872;SDS011;1444;49.166;7.312;2024-01-30T05:12:14;21.80;;;9.70;;
2872;SDS011;1444;49.166;7.312;2024-01-30T05:14:42;14.77;;;9.00;;
2872;SDS011;1444;49.166;7.312;2024-01-30T05:17:09;11.23;;;7.70;;
2872;SDS011;1444;49.166;7.312;2024-01-30T05:19:37;26.13;;;8.93;;
2872;SDS011;1444;49.166;7.312;2024-01-30T05:22:04;17.00;;;10.47;;
2872;SDS011;1444;49.166;7.312;2024-01-30T05:24:32;15.20;;;9.53;;
2872;SDS011;1444;49.166;7.312;2024-01-30T05:26:59;21.20;;;9.30;;
2872;SDS011;1444;49.166;7.312;2024-01-30T05:29:26;14.13;;;8.40;;
2872;SDS011;1444;49.166;7.312;2024-01-30T05:31:55;11.57;;;8.23;;
2872;SDS011;1444;49.166;7.312;2024-01-30T05:34:21;12.33;;;8.07;;
2872;SDS011;1444;49.166;7.312;2024-01-30T05:36:48;14.00;;;8.27;;
2872;SDS011;1444;49.166;7.312;2024-01-30T05:39:15;41.47;;;10.13;;
2872;SDS011;1444;49.166;7.312;2024-01-30T05:41:42;13.20;;;8.30;;
2872;SDS011;1444;49.166;7.312;2024-01-30T05:44:09;20.93;;;8.17;;
2872;SDS011;1444;49.166;7.312;2024-01-30T05:46:36;17.70;;;7.00;;
2872;SDS011;1444;49.166;7.312;2024-01-30T05:49:04;12.90;;;8.43;;
2872;SDS011;1444;49.166;7.312;2024-01-30T05:51:31;16.47;;;10.70;;
2872;SDS011;1444;49.166;7.312;2024-01-30T05:53:58;38.60;;;9.33;;
2872;SDS011;1444;49.166;7.312;2024-01-30T05:56:28;17.60;;;8.37;;
2872;SDS011;1444;49.166;7.312;2024-01-30T05:58:55;37.60;;;12.27;;
2872;SDS011;1444;49.166;7.312;2024-01-30T06:01:23;11.87;;;8.27;;
2872;SDS011;1444;49.166;7.312;2024-01-30T06:03:49;13.07;;;8.30;;
2872;SDS011;1444;49.166;7.312;2024-01-30T06:06:18;13.63;;;8.30;;
2872;SDS011;1444;49.166;7.312;2024-01-30T06:08:45;14.10;;;8.87;;
2872;SDS011;1444;49.166;7.312;2024-01-30T06:11:12;14.33;;;8.17;;
2872;SDS011;1444;49.166;7.312;2024-01-30T06:13:39;10.77;;;8.13;;
2872;SDS011;1444;49.166;7.312;2024-01-30T06:16:08;11.87;;;7.30;;
2872;SDS011;1444;49.166;7.312;2024-01-30T06:18:36;16.10;;;6.77;;
2872;SDS011;1444;49.166;7.312;2024-01-30T06:21:04;19.43;;;7.90;;
2872;SDS011;1444;49.166;7.312;2024-01-30T06:23:33;13.93;;;9.10;;
2872;SDS011;1444;49.166;7.312;2024-01-30T06:26:00;14.43;;;7.70;;
2872;SDS011;1444;49.166;7.312;2024-01-30T06:28:26;36.03;;;10.17;;
2872;SDS011;1444;49.166;7.312;2024-01-30T06:30:53;10.43;;;7.53;;
2872;SDS011;1444;49.166;7.312;2024-01-30T06:33:20;12.73;;;8.53;;
2872;SDS011;1444;49.166;7.312;2024-01-30T06:35:47;11.50;;;7.13;;
2872;SDS011;1444;49.166;7.312;2024-01-30T06:38:14;10.40;;;7.40;;
2872;SDS011;1444;49.166;7.312;2024-01-30T06:40:43;12.90;;;7.87;;
2872;SDS011;1444;49.166;7.312;2024-01-30T06:43:10;10.10;;;7.27;;
2872;SDS011;1444;49.166;7.312;2024-01-30T06:45:36;11.60;;;7.73;;
2872;SDS011;1444;49.166;7.312;2024-01-30T06:48:03;21.50;;;7.43;;
2872;SDS011;1444;49.166;7.312;2024-01-30T06:50:31;9.23;;;7.30;;
2872;SDS011;1444;49.166;7.312;2024-01-30T06:52:58;18.83;;;7.10;;
2872;SDS011;1444;49.166;7.312;2024-01-30T06:55:25;14.43;;;6.87;;
2872;SDS011;1444;49.166;7.312;2024-01-30T06:57:53;10.20;;;7.27;;
2872;SDS011;1444;49.166;7.312;2024-01-30T07:00:20;8.57;;;6.43;;
2872;SDS011;1444;49.166;7.312;2024-01-30T07:02:47;11.30;;;6.70;;
2872;SDS011;1444;49.166;7.312;2024-01-30T07:05:14;18.67;;;7.87;;
2872;SDS011;1444;49.166;7.312;2024-01-30T07:07:42;10.00;;;6.70;;
2872;SDS011;1444;49.166;7.312;2024-01-30T07:10:09;17.30;;;10.23;;
2872;SDS011;1444;49.166;7.312;2024-01-30T07:12:36;10.97;;;8.30;;
2872;SDS011;1444;49.166;7.312;2024-01-30T07:15:05;11.67;;;7.30;;
2872;SDS011;1444;49.166;7.312;2024-01-30T07:17:33;12.03;;;8.60;;
2872;SDS011;1444;49.166;7.312;2024-01-30T07:20:00;13.47;;;8.67;;
2872;SDS011;1444;49.166;7.312;2024-01-30T07:22:29;20.00;;;8.83;;
2872;SDS011;1444;49.166;7.312;2024-01-30T07:24:56;13.23;;;8.30;;
2872;SDS011;1444;49.166;7.312;2024-01-30T07:27:23;25.10;;;9.63;;
2872;SDS011;1444;49.166;7.312;2024-01-30T07:29:50;27.63;;;8.27;;
2872;SDS011;1444;49.166;7.312;2024-01-30T07:32:18;12.80;;;9.03;;
2872;SDS011;1444;49.166;7.312;2024-01-30T07:34:45;14.20;;;10.07;;
2872;SDS011;1444;49.166;7.312;2024-01-30T07:37:12;11.97;;;9.10;;
2872;SDS011;1444;49.166;7.312;2024-01-30T07:39:40;14.03;;;8.27;;
2872;SDS011;1444;49.166;7.312;2024-01-30T07:42:07;17.90;;;9.77;;
2872;SDS011;1444;49.166;7.312;2024-01-30T07:44:34;13.17;;;8.93;;
2872;SDS011;1444;49.166;7.312;2024-01-30T07:47:02;13.47;;;8.70;;
2872;SDS011;1444;49.166;7.312;2024-01-30T07:49:30;14.47;;;9.70;;
2872;SDS011;1444;49.166;7.312;2024-01-30T07:51:57;12.70;;;8.57;;
2872;SDS011;1444;49.166;7.312;2024-01-30T07:54:25;16.63;;;8.67;;
2872;SDS011;1444;49.166;7.312;2024-01-30T07:56:52;36.77;;;9.40;;
2872;SDS011;1444;49.166;7.312;2024-01-30T07:59:18;11.80;;;8.67;;
2872;SDS011;1444;49.166;7.312;2024-01-30T08:01:49;20.33;;;9.70;;
2872;SDS011;1444;49.166;7.312;2024-01-30T08:04:16;24.43;;;10.40;;
2872;SDS011;1444;49.166;7.312;2024-01-30T08:06:45;17.83;;;8.00;;
2872;SDS011;1444;49.166;7.312;2024-01-30T08:09:12;10.80;;;8.67;;
2872;SDS011;1444;49.166;7.312;2024-01-30T08:11:40;11.10;;;8.70;;
2872;SDS011;1444;49.166;7.312;2024-01-30T08:14:07;12.00;;;8.03;;
2872;SDS011;1444;49.166;7.312;2024-01-30T08:16:34;17.27;;;9.57;;
2872;SDS011;1444;49.166;7.312;2024-01-30T08:19:01;18.43;;;9.67;;
2872;SDS011;1444;49.166;7.312;2024-01-30T08:21:28;18.70;;;8.97;;
2872;SDS011;1444;49.166;7.312;2024-01-30T08:24:02;16.40;;;9.27;;
2872;SDS011;1444;49.166;7.312;2024-01-30T08:26:29;15.13;;;8.40;;
2872;SDS011;1444;49.166;7.312;2024-01-30T08:28:56;13.60;;;7.70;;
2872;SDS011;1444;49.166;7.312;2024-01-30T08:31:23;30.77;;;10.00;;
2872;SDS011;1444;49.166;7.312;2024-01-30T08:33:50;14.00;;;8.30;;
2872;SDS011;1444;49.166;7.312;2024-01-30T08:36:17;17.93;;;8.53;;
2872;SDS011;1444;49.166;7.312;2024-01-30T08:38:44;18.23;;;9.40;;
2872;SDS011;1444;49.166;7.312;2024-01-30T08:41:13;11.30;;;8.10;;
2872;SDS011;1444;49.166;7.312;2024-01-30T08:43:40;26.50;;;9.30;;
2872;SDS011;1444;49.166;7.312;2024-01-30T08:46:07;21.63;;;9.87;;
2872;SDS011;1444;49.166;7.312;2024-01-30T08:48:35;11.67;;;9.10;;
2872;SDS011;1444;49.166;7.312;2024-01-30T08:51:02;13.23;;;8.37;;
2872;SDS011;1444;49.166;7.312;2024-01-30T08:53:33;17.43;;;7.30;;
2872;SDS011;1444;49.166;7.312;2024-01-30T08:56:00;13.93;;;9.20;;
2872;SDS011;1444;49.166;7.312;2024-01-30T08:58:28;9.13;;;7.00;;
2872;SDS011;1444;49.166;7.312;2024-01-30T09:00:55;10.97;;;8.67;;
2872;SDS011;1444;49.166;7.312;2024-01-30T09:03:22;11.63;;;7.83;;
2872;SDS011;1444;49.166;7.312;2024-01-30T09:05:49;47.00;;;9.60;;
2872;SDS011;1444;49.166;7.312;2024-01-30T09:08:16;11.50;;;9.07;;
2872;SDS011;1444;49.166;7.312;2024-01-30T09:10:43;16.33;;;7.93;;
2872;SDS011;1444;49.166;7.312;2024-01-30T09:13:10;22.57;;;8.63;;
2872;SDS011;1444;49.166;7.312;2024-01-30T09:15:39;11.43;;;8.30;;
2872;SDS011;1444;49.166;7.312;2024-01-30T09:18:06;12.60;;;8.10;;
2872;SDS011;1444;49.166;7.312;2024-01-30T09:20:33;17.90;;;7.73;;
2872;SDS011;1444;49.166;7.312;2024-01-30T09:23:00;10.57;;;8.50;;
2872;SDS011;1444;49.166;7.312;2024-01-30T09:25:26;11.37;;;8.43;;
2872;SDS011;1444;49.166;7.312;2024-01-30T09:27:53;35.13;;;9.23;;
2872;SDS011;1444;49.166;7.312;2024-01-30T09:30:20;12.10;;;8.20;;
2872;SDS011;1444;49.166;7.312;2024-01-30T09:32:49;11.53;;;8.80;;
2872;SDS011;1444;49.166;7.312;2024-01-30T09:35:15;15.73;;;8.63;;
2872;SDS011;1444;49.166;7.312;2024-01-30T09:37:42;15.33;;;8.33;;
2872;SDS011;1444;49.166;7.312;2024-01-30T09:40:09;17.93;;;8.20;;
2872;SDS011;1444;49.166;7.312;2024-01-30T09:42:37;8.90;;;7.30;;
2872;SDS011;1444;49.166;7.312;2024-01-30T09:45:04;13.97;;;8.60;;
2872;SDS011;1444;49.166;7.312;2024-01-30T09:47:32;17.77;;;7.80;;
2872;SDS011;1444;49.166;7.312;2024-01-30T09:50:08;14.70;;;9.40;;
2872;SDS011;1444;49.166;7.312;2024-01-30T09:52:36;11.67;;;9.10;;
2872;SDS011;1444;49.166;7.312;2024-01-30T09:55:03;18.53;;;8.30;;
2872;SDS011;1444;49.166;7.312;2024-01-30T09:57:30;12.30;;;9.30;;
2872;SDS011;1444;49.166;7.312;2024-01-30T09:59:57;10.20;;;7.40;;
2872;SDS011;1444;49.166;7.312;2024-01-30T10:02:24;16.93;;;7.97;;
2872;SDS011;1444;49.166;7.312;2024-01-30T10:04:51;9.90;;;7.40;;
2872;SDS011;1444;49.166;7.312;2024-01-30T10:07:20;11.33;;;8.60;;
2872;SDS011;1444;49.166;7.312;2024-01-30T10:09:48;18.07;;;7.43;;
2872;SDS011;1444;49.166;7.312;2024-01-30T10:12:15;10.67;;;8.40;;
2872;SDS011;1444;49.166;7.312;2024-01-30T10:14:43;29.20;;;7.97;;
2872;SDS011;1444;49.166;7.312;2024-01-30T10:17:10;10.77;;;7.30;;
2872;SDS011;1444;49.166;7.312;2024-01-30T10:19:39;8.60;;;7.60;;
2872;SDS011;1444;49.166;7.312;2024-01-30T10:22:07;10.47;;;8.43;;
2872;SDS011;1444;49.166;7.312;2024-01-30T10:24:35;11.03;;;6.87;;
2872;SDS011;1444;49.166;7.312;2024-01-30T10:27:03;13.43;;;7.53;;
2872;SDS011;1444;49.166;7.312;2024-01-30T10:29:31;10.60;;;8.57;;
2872;SDS011;1444;49.166;7.312;2024-01-30T10:31:58;13.40;;;7.87;;
2872;SDS011;1444;49.166;7.312;2024-01-30T10:34:25;9.43;;;8.40;;
2872;SDS011;1444;49.166;7.312;2024-01-30T10:36:55;17.23;;;9.80;;
2872;SDS011;1444;49.166;7.312;2024-01-30T10:39:28;12.70;;;8.57;;
2872;SDS011;1444;49.166;7.312;2024-01-30T10:42:01;10.87;;;7.00;;
2872;SDS011;1444;49.166;7.312;2024-01-30T10:44:33;9.53;;;6.23;;
2872;SDS011;1444;49.166;7.312;2024-01-30T10:47:06;17.90;;;8.50;;
2872;SDS011;1444;49.166;7.312;2024-01-30T10:49:35;18.03;;;8.57;;
2872;SDS011;1444;49.166;7.312;2024-01-30T10:52:03;9.57;;;5.77;;
2872;SDS011;1444;49.166;7.312;2024-01-30T10:54:32;8.93;;;7.50;;
2872;SDS011;1444;49.166;7.312;2024-01-30T10:57:03;14.87;;;6.97;;
2872;SDS011;1444;49.166;7.312;2024-01-30T10:59:30;14.17;;;7.70;;
2872;SDS011;1444;49.166;7.312;2024-01-30T11:01:57;15.00;;;7.63;;
2872;SDS011;1444;49.166;7.312;2024-01-30T11:04:25;20.53;;;8.00;;
2872;SDS011;1444;49.166;7.312;2024-01-30T11:06:51;11.63;;;7.57;;
2872;SDS011;1444;49.166;7.312;2024-01-30T11:09:19;13.97;;;9.03;;
2872;SDS011;1444;49.166;7.312;2024-01-30T11:11:49;9.70;;;7.70;;
2872;SDS011;1444;49.166;7.312;2024-01-30T11:14:18;12.33;;;7.80;;
2872;SDS011;1444;49.166;7.312;2024-01-30T11:16:50;22.60;;;8.10;;
2872;SDS011;1444;49.166;7.312;2024-01-30T11:19:22;18.23;;;8.63;;
2872;SDS011;1444;49.166;7.312;2024-01-30T11:21:53;15.70;;;8.17;;
2872;SDS011;1444;49.166;7.312;2024-01-30T11:24:22;19.03;;;8.37;;
2872;SDS011;1444;49.166;7.312;2024-01-30T11:26:49;16.50;;;7.53;;
2872;SDS011;1444;49.166;7.312;2024-01-30T11:29:25;10.93;;;8.50;;
2872;SDS011;1444;49.166;7.312;2024-01-30T11:31:54;25.10;;;7.17;;
2872;SDS011;1444;49.166;7.312;2024-01-30T11:34:21;12.50;;;7.80;;
2872;SDS011;1444;49.166;7.312;2024-01-30T11:36:51;9.83;;;8.83;;
2872;SDS011;1444;49.166;7.312;2024-01-30T11:39:23;33.13;;;8.50;;
2872;SDS011;1444;49.166;7.312;2024-01-30T11:41:51;11.83;;;7.10;;
2872;SDS011;1444;49.166;7.312;2024-01-30T11:44:18;20.73;;;8.90;;
2872;SDS011;1444;49.166;7.312;2024-01-30T11:46:48;6.83;;;6.13;;
2872;SDS011;1444;49.166;7.312;2024-01-30T11:49:15;15.97;;;9.27;;
2872;SDS011;1444;49.166;7.312;2024-01-30T11:51:42;18.03;;;5.50;;
2872;SDS011;1444;49.166;7.312;2024-01-30T11:54:13;31.47;;;8.53;;
2872;SDS011;1444;49.166;7.312;2024-01-30T11:56:40;10.53;;;7.57;;
2872;SDS011;1444;49.166;7.312;2024-01-30T11:59:08;12.60;;;9.77;;
2872;SDS011;1444;49.166;7.312;2024-01-30T12:01:35;14.30;;;9.07;;
2872;SDS011;1444;49.166;7.312;2024-01-30T12:04:03;8.67;;;7.57;;
2872;SDS011;1444;49.166;7.312;2024-01-30T12:06:34;11.60;;;9.00;;
2872;SDS011;1444;49.166;7.312;2024-01-30T12:09:01;11.60;;;8.40;;
2872;SDS011;1444;49.166;7.312;2024-01-30T12:11:30;15.67;;;6.77;;
2872;SDS011;1444;49.166;7.312;2024-01-30T12:13:57;20.23;;;8.93;;
2872;SDS011;1444;49.166;7.312;2024-01-30T12:16:25;29.40;;;11.07;;
2872;SDS011;1444;49.166;7.312;2024-01-30T12:18:58;22.73;;;8.80;;
2872;SDS011;1444;49.166;7.312;2024-01-30T12:21:28;14.77;;;10.37;;
2872;SDS011;1444;49.166;7.312;2024-01-30T12:23:55;10.27;;;7.83;;
2872;SDS011;1444;49.166;7.312;2024-01-30T12:26:23;23.93;;;9.93;;
2872;SDS011;1444;49.166;7.312;2024-01-30T12:28:54;13.03;;;10.00;;
2872;SDS011;1444;49.166;7.312;2024-01-30T12:31:25;14.20;;;9.33;;
2872;SDS011;1444;49.166;7.312;2024-01-30T12:33:52;15.20;;;8.73;;
2872;SDS011;1444;49.166;7.312;2024-01-30T12:36:20;18.80;;;9.73;;
2872;SDS011;1444;49.166;7.312;2024-01-30T12:38:49;15.43;;;11.97;;
2872;SDS011;1444;49.166;7.312;2024-01-30T12:41:16;12.00;;;8.50;;
2872;SDS011;1444;49.166;7.312;2024-01-30T12:43:43;15.73;;;9.50;;
2872;SDS011;1444;49.166;7.312;2024-01-30T12:46:12;28.70;;;11.53;;
2872;SDS011;1444;49.166;7.312;2024-01-30T12:48:39;28.90;;;10.47;;
2872;SDS011;1444;49.166;7.312;2024-01-30T12:51:06;12.40;;;9.33;;
2872;SDS011;1444;49.166;7.312;2024-01-30T12:53:33;8.77;;;7.80;;
2872;SDS011;1444;49.166;7.312;2024-01-30T12:56:02;14.30;;;7.93;;
2872;SDS011;1444;49.166;7.312;2024-01-30T12:58:29;12.10;;;9.67;;
2872;SDS011;1444;49.166;7.312;2024-01-30T13:00:56;16.77;;;9.37;;
2872;SDS011;1444;49.166;7.312;2024-01-30T13:03:23;18.67;;;9.40;;
2872;SDS011;1444;49.166;7.312;2024-01-30T13:05:50;16.97;;;9.83;;
2872;SDS011;1444;49.166;7.312;2024-01-30T13:08:17;21.87;;;9.67;;
2872;SDS011;1444;49.166;7.312;2024-01-30T13:10:44;15.63;;;11.23;;
2872;SDS011;1444;49.166;7.312;2024-01-30T13:13:12;11.10;;;8.87;;
2872;SDS011;1444;49.166;7.312;2024-01-30T13:15:39;14.50;;;7.80;;
2872;SDS011;1444;49.166;7.312;2024-01-30T13:18:06;18.73;;;9.83;;
2872;SDS011;1444;49.166;7.312;2024-01-30T13:20:33;39.73;;;12.43;;
2872;SDS011;1444;49.166;7.312;2024-01-30T13:23:00;16.90;;;9.90;;
2872;SDS011;1444;49.166;7.312;2024-01-30T13:25:27;15.40;;;8.87;;
2872;SDS011;1444;49.166;7.312;2024-01-30T13:27:54;22.70;;;9.43;;
2872;SDS011;1444;49.166;7.312;2024-01-30T13:30:22;12.40;;;9.57;;
2872;SDS011;1444;49.166;7.312;2024-01-30T13:32:49;17.00;;;9.30;;
2872;SDS011;1444;49.166;7.312;2024-01-30T13:35:16;15.33;;;7.80;;
2872;SDS011;1444;49.166;7.312;2024-01-30T13:37:43;11.60;;;9.07;;
2872;SDS011;1444;49.166;7.312;2024-01-30T13:40:10;10.93;;;9.17;;
2872;SDS011;1444;49.166;7.312;2024-01-30T13:42:39;17.60;;;10.40;;
2872;SDS011;1444;49.166;7.312;2024-01-30T13:45:06;10.73;;;8.33;;
2872;SDS011;1444;49.166;7.312;2024-01-30T13:47:36;16.90;;;10.07;;
2872;SDS011;1444;49.166;7.312;2024-01-30T13:50:03;14.80;;;8.47;;
2872;SDS011;1444;49.166;7.312;2024-01-30T13:52:31;15.37;;;10.13;;
2872;SDS011;1444;49.166;7.312;2024-01-30T13:54:57;53.73;;;10.53;;
2872;SDS011;1444;49.166;7.312;2024-01-30T13:57:25;11.93;;;10.07;;
2872;SDS011;1444;49.166;7.312;2024-01-30T13:59:51;15.13;;;6.43;;
2872;SDS011;1444;49.166;7.312;2024-01-30T14:02:18;21.20;;;8.40;;
2872;SDS011;1444;49.166;7.312;2024-01-30T14:04:47;12.97;;;9.07;;
2872;SDS011;1444;49.166;7.312;2024-01-30T14:07:14;12.87;;;9.07;;
2872;SDS011;1444;49.166;7.312;2024-01-30T14:09:43;20.23;;;8.70;;
2872;SDS011;1444;49.166;7.312;2024-01-30T14:12:10;15.63;;;9.40;;
2872;SDS011;1444;49.166;7.312;2024-01-30T14:14:37;11.63;;;9.40;;
2872;SDS011;1444;49.166;7.312;2024-01-30T14:17:04;18.73;;;10.83;;
2872;SDS011;1444;49.166;7.312;2024-01-30T14:19:32;7.97;;;6.80;;
2872;SDS011;1444;49.166;7.312;2024-01-30T14:22:00;14.00;;;8.87;;
2872;SDS011;1444;49.166;7.312;2024-01-30T14:24:27;13.27;;;9.67;;
2872;SDS011;1444;49.166;7.312;2024-01-30T14:26:54;16.77;;;9.20;;
2872;SDS011;1444;49.166;7.312;2024-01-30T14:29:21;33.83;;;10.93;;
2872;SDS011;1444;49.166;7.312;2024-01-30T14:31:48;14.27;;;9.07;;
2872;SDS011;1444;49.166;7.312;2024-01-30T14:34:15;21.53;;;10.37;;
2872;SDS011;1444;49.166;7.312;2024-01-30T14:36:42;23.03;;;9.77;;
2872;SDS011;1444;49.166;7.312;2024-01-30T14:39:11;13.40;;;9.93;;
2872;SDS011;1444;49.166;7.312;2024-01-30T14:41:38;13.03;;;9.80;;
2872;SDS011;1444;49.166;7.312;2024-01-30T14:44:05;14.97;;;9.53;;
2872;SDS011;1444;49.166;7.312;2024-01-30T14:46:33;14.80;;;8.93;;
2872;SDS011;1444;49.166;7.312;2024-01-30T14:48:59;10.80;;;9.50;;
2872;SDS011;1444;49.166;7.312;2024-01-30T14:51:28;16.20;;;8.47;;
2872;SDS011;1444;49.166;7.312;2024-01-30T14:53:55;16.20;;;8.70;;
2872;SDS011;1444;49.166;7.312;2024-01-30T14:56:24;13.50;;;10.13;;